Time;durP1;ratioP1;P1;durP2;ratioP2;P2;SDS_P1;SDS_P2;PMS_P1;PMS_P2;Temp;Humidity;BMP_temperature;BMP_pressure;BME280_temperature;BME280_humidity;BME280_pressure;Samples;Min_cycle;Max_cycle;Signal;HPM_P1;HPM_P2
2022/05/17 00:00:51;;;;;;;3.65;3.45;;;;;;;;;;5045537;28;20219;-79
2022/05/17 00:03:18;;;;;;;3.60;3.30;;;;;;;;;;5050114;28;20195;-80
2022/05/17 00:05:47;;;;;;;4.00;3.70;;;;;;;;;;5053212;28;20480;-79
2022/05/17 00:08:15;;;;;;;3.17;2.88;;;;;;;;;;5051033;28;20551;-78
2022/05/17 00:10:43;;;;;;;4.38;4.00;;;;;;;;;;5049687;28;20191;-80
2022/05/17 00:13:10;;;;;;;6.18;3.22;;;;;;;;;;5035981;28;20222;-79
2022/05/17 00:15:40;;;;;;;3.80;3.50;;;;;;;;;;5046817;28;20218;-79
2022/05/17 00:18:07;;;;;;;3.30;3.00;;;;;;;;;;5051977;28;20197;-79
2022/05/17 00:20:34;;;;;;;3.40;3.13;;;;;;;;;;5036451;28;20234;-81
2022/05/17 00:23:03;;;;;;;2.83;2.53;;;;;;;;;;5034614;28;20939;-79
2022/05/17 00:25:30;;;;;;;3.50;3.20;;;;;;;;;;5037124;28;20212;-79
2022/05/17 00:27:57;;;;;;;3.22;2.97;;;;;;;;;;5046432;28;20578;-79
2022/05/17 00:30:24;;;;;;;3.38;3.17;;;;;;;;;;5048901;28;20199;-80
2022/05/17 00:32:51;;;;;;;3.40;3.10;;;;;;;;;;5050898;28;20226;-80
2022/05/17 00:35:18;;;;;;;3.30;3.10;;;;;;;;;;5049742;28;20234;-79
2022/05/17 00:37:45;;;;;;;3.42;3.03;;;;;;;;;;5042990;28;20230;-79
2022/05/17 00:40:15;;;;;;;3.25;3.05;;;;;;;;;;5041100;28;20221;-81
2022/05/17 00:42:42;;;;;;;3.55;3.00;;;;;;;;;;5048120;28;20223;-79
2022/05/17 00:45:12;;;;;;;4.15;3.60;;;;;;;;;;5048744;28;20214;-79
2022/05/17 00:47:43;;;;;;;3.42;3.17;;;;;;;;;;5059322;28;20563;-79
2022/05/17 00:50:12;;;;;;;3.85;3.35;;;;;;;;;;5049837;28;20206;-79
2022/05/17 00:52:42;;;;;;;3.63;3.30;;;;;;;;;;5050265;28;20199;-79
2022/05/17 00:55:11;;;;;;;2.55;2.35;;;;;;;;;;5041654;28;20226;-79
2022/05/17 00:57:42;;;;;;;3.72;2.90;;;;;;;;;;5044564;28;20203;-80
2022/05/17 01:00:13;;;;;;;3.70;3.40;;;;;;;;;;5041398;28;20597;-80
2022/05/17 01:02:40;;;;;;;3.55;3.25;;;;;;;;;;5044639;28;20257;-81
2022/05/17 01:05:08;;;;;;;3.42;3.22;;;;;;;;;;5048879;28;20199;-81
2022/05/17 01:07:39;;;;;;;2.85;2.65;;;;;;;;;;5041148;28;20203;-80
2022/05/17 01:10:06;;;;;;;3.50;3.20;;;;;;;;;;5039704;28;20558;-81
2022/05/17 01:12:35;;;;;;;3.08;2.85;;;;;;;;;;5046625;28;20206;-81
2022/05/17 01:15:03;;;;;;;4.00;3.30;;;;;;;;;;5043312;28;20576;-82
2022/05/17 01:17:32;;;;;;;6.72;2.88;;;;;;;;;;5042382;28;20709;-79
2022/05/17 01:20:00;;;;;;;2.97;2.78;;;;;;;;;;5049715;28;20300;-80
2022/05/17 01:22:28;;;;;;;4.43;4.07;;;;;;;;;;5044852;28;20199;-79
2022/05/17 01:24:55;;;;;;;3.40;3.20;;;;;;;;;;5042464;28;20199;-78
2022/05/17 01:27:25;;;;;;;5.05;3.45;;;;;;;;;;5050718;28;20531;-80
2022/05/17 01:29:54;;;;;;;3.60;3.30;;;;;;;;;;5046918;28;20201;-80
2022/05/17 01:32:22;;;;;;;3.25;2.95;;;;;;;;;;5044875;28;20208;-81
2022/05/17 01:34:49;;;;;;;3.25;3.05;;;;;;;;;;5044960;28;20642;-80
2022/05/17 01:37:17;;;;;;;3.85;3.55;;;;;;;;;;5041522;28;20199;-80
2022/05/17 01:39:46;;;;;;;2.90;2.70;;;;;;;;;;5039235;28;20201;-81
2022/05/17 01:42:14;;;;;;;4.07;3.78;;;;;;;;;;5049492;28;20222;-81
2022/05/17 01:44:43;;;;;;;3.20;2.90;;;;;;;;;;5046778;28;20290;-82
2022/05/17 01:47:10;;;;;;;3.08;2.85;;;;;;;;;;5047469;28;20739;-81
2022/05/17 01:49:37;;;;;;;4.20;3.80;;;;;;;;;;5045912;28;20199;-81
2022/05/17 01:52:05;;;;;;;3.80;3.50;;;;;;;;;;5047824;28;20195;-79
2022/05/17 01:54:32;;;;;;;3.10;2.90;;;;;;;;;;5043641;28;20191;-79
2022/05/17 01:57:00;;;;;;;3.83;3.45;;;;;;;;;;5038020;28;20214;-79
2022/05/17 01:59:27;;;;;;;3.28;2.95;;;;;;;;;;5045845;28;20212;-79
2022/05/17 02:01:54;;;;;;;3.60;3.30;;;;;;;;;;5047498;28;20219;-79
2022/05/17 02:04:21;;;;;;;3.47;3.17;;;;;;;;;;5047063;28;20843;-79
2022/05/17 02:06:48;;;;;;;3.85;3.47;;;;;;;;;;5046848;28;20198;-79
2022/05/17 02:09:15;;;;;;;4.85;3.47;;;;;;;;;;5037134;28;20234;-79
2022/05/17 02:11:43;;;;;;;3.53;3.25;;;;;;;;;;5049616;28;20199;-79
2022/05/17 02:14:11;;;;;;;3.88;3.50;;;;;;;;;;5045517;28;20242;-81
2022/05/17 02:16:38;;;;;;;3.60;3.30;;;;;;;;;;5044544;28;20211;-83
2022/05/17 02:19:06;;;;;;;3.10;2.85;;;;;;;;;;5043903;28;20207;-83
2022/05/17 02:21:33;;;;;;;5.03;3.33;;;;;;;;;;5041651;28;20626;-83
2022/05/17 02:24:00;;;;;;;3.30;3.00;;;;;;;;;;5046472;28;20420;-81
2022/05/17 02:26:27;;;;;;;3.50;3.20;;;;;;;;;;5054055;28;20199;-80
2022/05/17 02:28:54;;;;;;;2.97;2.67;;;;;;;;;;5052313;28;20229;-81
2022/05/17 02:31:23;;;;;;;4.10;3.50;;;;;;;;;;5051702;28;20198;-81
2022/05/17 02:33:50;;;;;;;3.53;3.22;;;;;;;;;;5050638;28;20203;-80
2022/05/17 02:36:17;;;;;;;3.45;2.92;;;;;;;;;;5047972;28;20231;-80
2022/05/17 02:38:44;;;;;;;3.83;3.15;;;;;;;;;;5047651;28;20218;-79
2022/05/17 02:41:11;;;;;;;4.03;3.72;;;;;;;;;;5046366;28;20621;-79
2022/05/17 02:43:38;;;;;;;3.83;3.53;;;;;;;;;;5052190;28;20210;-79
2022/05/17 02:46:07;;;;;;;4.25;3.05;;;;;;;;;;5038688;28;20199;-78
2022/05/17 02:48:36;;;;;;;3.70;3.17;;;;;;;;;;5053678;28;20225;-79
2022/05/17 02:51:10;;;;;;;3.05;2.85;;;;;;;;;;5046902;28;20211;-78
2022/05/17 02:53:37;;;;;;;2.97;2.65;;;;;;;;;;5039697;28;20595;-79
2022/05/17 02:56:04;;;;;;;3.83;3.53;;;;;;;;;;5041891;28;20694;-79
2022/05/17 02:58:31;;;;;;;3.35;3.00;;;;;;;;;;5047823;28;20678;-80
2022/05/17 03:00:58;;;;;;;4.63;3.80;;;;;;;;;;5051157;28;20670;-78
2022/05/17 03:03:25;;;;;;;2.85;2.65;;;;;;;;;;5052246;28;20207;-79
2022/05/17 03:05:53;;;;;;;3.38;3.08;;;;;;;;;;5048940;28;20204;-78
2022/05/17 03:08:21;;;;;;;2.90;2.70;;;;;;;;;;5054395;28;20207;-77
2022/05/17 03:10:48;;;;;;;3.75;3.35;;;;;;;;;;5049714;28;20191;-79
2022/05/17 03:13:16;;;;;;;3.47;2.60;;;;;;;;;;5051075;28;20198;-78
2022/05/17 03:15:43;;;;;;;4.72;3.75;;;;;;;;;;5036290;28;20215;-79
2022/05/17 03:18:10;;;;;;;3.65;3.35;;;;;;;;;;5051255;28;20669;-79
2022/05/17 03:20:37;;;;;;;3.30;2.85;;;;;;;;;;5050345;28;20226;-81
2022/05/17 03:23:05;;;;;;;4.07;3.72;;;;;;;;;;5047006;28;20615;-80
2022/05/17 03:25:32;;;;;;;4.15;3.75;;;;;;;;;;5045958;28;20210;-80
2022/05/17 03:27:59;;;;;;;4.53;4.13;;;;;;;;;;5053068;28;20217;-80
2022/05/17 03:30:27;;;;;;;3.72;3.42;;;;;;;;;;5046849;28;20574;-80
2022/05/17 03:32:54;;;;;;;3.15;2.83;;;;;;;;;;5046825;28;20196;-80
2022/05/17 03:35:22;;;;;;;4.68;3.75;;;;;;;;;;5048718;28;20215;-79
2022/05/17 03:37:49;;;;;;;3.33;3.00;;;;;;;;;;5047809;28;20199;-79
2022/05/17 03:40:18;;;;;;;2.78;2.58;;;;;;;;;;5048439;28;20701;-80
2022/05/17 03:42:45;;;;;;;3.00;2.70;;;;;;;;;;5048789;28;20273;-79
2022/05/17 03:45:13;;;;;;;3.35;3.05;;;;;;;;;;5047303;28;20642;-79
2022/05/17 03:47:40;;;;;;;3.42;3.13;;;;;;;;;;5048795;28;20584;-78
2022/05/17 03:50:08;;;;;;;3.55;3.25;;;;;;;;;;5032805;28;20199;-78
2022/05/17 03:52:35;;;;;;;3.45;3.13;;;;;;;;;;5048930;28;20195;-78
2022/05/17 03:55:04;;;;;;;3.78;3.47;;;;;;;;;;5046246;28;20291;-79
2022/05/17 03:57:32;;;;;;;3.13;2.80;;;;;;;;;;5049723;28;20418;-79
2022/05/17 03:59:59;;;;;;;4.40;3.30;;;;;;;;;;5042032;28;20195;-79
2022/05/17 04:02:26;;;;;;;3.88;3.53;;;;;;;;;;5049838;28;20674;-80
2022/05/17 04:04:53;;;;;;;3.10;2.75;;;;;;;;;;5051309;28;20686;-79
2022/05/17 04:07:21;;;;;;;3.78;3.47;;;;;;;;;;5045926;28;20237;-80
2022/05/17 04:09:48;;;;;;;3.08;2.78;;;;;;;;;;5043673;28;20221;-79
2022/05/17 04:12:15;;;;;;;2.95;2.70;;;;;;;;;;5049841;28;20198;-79
2022/05/17 04:14:43;;;;;;;5.40;3.05;;;;;;;;;;5049214;28;20674;-78
2022/05/17 04:17:10;;;;;;;3.28;3.08;;;;;;;;;;5043039;28;20570;-78
2022/05/17 04:19:39;;;;;;;5.05;3.45;;;;;;;;;;5041792;28;20686;-81
2022/05/17 04:22:08;;;;;;;2.45;2.25;;;;;;;;;;5041161;28;20219;-79
2022/05/17 04:24:35;;;;;;;3.45;3.00;;;;;;;;;;5044012;28;20739;-80
2022/05/17 04:27:03;;;;;;;3.03;2.72;;;;;;;;;;5050953;28;20209;-79
2022/05/17 04:29:30;;;;;;;3.58;2.85;;;;;;;;;;5050197;28;20225;-78
2022/05/17 04:31:58;;;;;;;4.10;3.70;;;;;;;;;;5046004;28;20199;-81
2022/05/17 04:34:25;;;;;;;3.70;3.20;;;;;;;;;;5042602;28;20250;-79
2022/05/17 04:36:52;;;;;;;4.43;3.78;;;;;;;;;;5044331;28;20658;-79
2022/05/17 04:39:19;;;;;;;5.25;4.22;;;;;;;;;;5041539;28;20574;-80
2022/05/17 04:41:46;;;;;;;3.97;3.35;;;;;;;;;;5041148;28;20245;-79
2022/05/17 04:44:13;;;;;;;5.25;4.78;;;;;;;;;;5049197;28;20190;-79
2022/05/17 04:46:40;;;;;;;5.40;4.85;;;;;;;;;;5049750;28;20199;-78
2022/05/17 04:49:09;;;;;;;9.02;5.22;;;;;;;;;;5045060;28;20191;-80
2022/05/17 04:51:36;;;;;;;7.05;5.70;;;;;;;;;;5039190;28;20199;-79
2022/05/17 04:54:03;;;;;;;6.88;6.13;;;;;;;;;;5041702;28;20202;-79
2022/05/17 04:56:31;;;;;;;7.05;5.90;;;;;;;;;;5050374;28;20206;-79
2022/05/17 04:58:58;;;;;;;5.80;5.32;;;;;;;;;;5045471;28;20207;-78
2022/05/17 05:01:25;;;;;;;8.35;5.78;;;;;;;;;;5048373;28;20223;-80
2022/05/17 05:03:53;;;;;;;11.80;6.65;;;;;;;;;;5051135;28;20193;-79
2022/05/17 05:06:21;;;;;;;5.60;5.10;;;;;;;;;;5049760;28;20226;-79
2022/05/17 05:08:48;;;;;;;5.72;4.95;;;;;;;;;;5042153;28;20271;-79
2022/05/17 05:11:15;;;;;;;6.22;5.10;;;;;;;;;;5042027;28;20197;-78
2022/05/17 05:13:42;;;;;;;6.32;5.40;;;;;;;;;;5051125;28;20210;-78
2022/05/17 05:16:10;;;;;;;6.97;6.30;;;;;;;;;;5044059;28;20673;-79
2022/05/17 05:18:38;;;;;;;6.78;6.13;;;;;;;;;;5044068;28;20191;-78
2022/05/17 05:21:08;;;;;;;5.05;3.85;;;;;;;;;;5049827;28;20202;-81
2022/05/17 05:23:37;;;;;;;6.65;4.00;;;;;;;;;;5045301;28;20290;-80
2022/05/17 05:26:04;;;;;;;4.47;3.40;;;;;;;;;;5043584;28;20214;-79
2022/05/17 05:28:31;;;;;;;5.40;3.00;;;;;;;;;;5048986;28;20206;-78
2022/05/17 05:30:58;;;;;;;4.68;3.00;;;;;;;;;;5045641;28;20615;-79
2022/05/17 05:33:26;;;;;;;4.13;3.72;;;;;;;;;;5050564;28;20248;-78
2022/05/17 05:35:53;;;;;;;2.95;2.70;;;;;;;;;;5033992;28;20192;-78
2022/05/17 05:38:20;;;;;;;4.18;2.67;;;;;;;;;;5043669;28;20199;-79
2022/05/17 05:40:49;;;;;;;2.88;2.58;;;;;;;;;;5050022;28;20206;-77
2022/05/17 05:43:16;;;;;;;3.28;2.63;;;;;;;;;;5049358;28;20720;-77
2022/05/17 05:45:43;;;;;;;2.80;2.60;;;;;;;;;;5036500;28;20200;-77
2022/05/17 05:48:10;;;;;;;4.00;3.70;;;;;;;;;;5035070;28;20291;-79
2022/05/17 05:50:38;;;;;;;3.42;2.60;;;;;;;;;;5041173;28;20203;-78
2022/05/17 05:53:06;;;;;;;3.38;2.88;;;;;;;;;;5043951;28;20199;-78
2022/05/17 05:55:34;;;;;;;3.05;2.33;;;;;;;;;;5044411;28;20286;-79
2022/05/17 05:58:03;;;;;;;4.68;2.15;;;;;;;;;;5054262;28;20252;-79
2022/05/17 06:00:30;;;;;;;5.13;2.97;;;;;;;;;;5047717;28;20202;-79
2022/05/17 06:02:57;;;;;;;3.17;2.00;;;;;;;;;;5054043;28;20226;-82
2022/05/17 06:05:25;;;;;;;2.55;2.35;;;;;;;;;;5048869;28;20194;-79
2022/05/17 06:07:52;;;;;;;2.70;2.20;;;;;;;;;;5050148;28;20666;-79
2022/05/17 06:10:20;;;;;;;2.22;2.03;;;;;;;;;;5055747;28;20574;-80
2022/05/17 06:12:47;;;;;;;3.85;2.80;;;;;;;;;;5045413;28;20195;-79
2022/05/17 06:15:16;;;;;;;2.70;2.38;;;;;;;;;;5049262;28;20378;-79
2022/05/17 06:17:43;;;;;;;2.30;2.10;;;;;;;;;;5046030;28;20655;-79
2022/05/17 06:20:12;;;;;;;3.40;2.35;;;;;;;;;;5048196;28;20214;-79
2022/05/17 06:22:40;;;;;;;4.32;2.55;;;;;;;;;;5051015;28;20207;-80
2022/05/17 06:25:07;;;;;;;3.15;1.85;;;;;;;;;;5047564;28;20388;-79
2022/05/17 06:27:36;;;;;;;3.25;2.40;;;;;;;;;;5050732;28;20191;-79
2022/05/17 06:30:07;;;;;;;2.83;2.55;;;;;;;;;;5047847;28;20195;-80
2022/05/17 06:32:36;;;;;;;2.42;2.22;;;;;;;;;;5047651;28;20449;-80
2022/05/17 06:35:03;;;;;;;4.15;2.70;;;;;;;;;;5047761;28;20203;-80
2022/05/17 06:37:30;;;;;;;3.00;2.70;;;;;;;;;;5048086;28;20671;-80
2022/05/17 06:39:57;;;;;;;3.40;2.42;;;;;;;;;;5041190;28;20210;-80
2022/05/17 06:42:27;;;;;;;2.33;2.10;;;;;;;;;;5044230;28;20223;-80
2022/05/17 06:44:54;;;;;;;3.03;2.47;;;;;;;;;;5042707;28;20206;-80
2022/05/17 06:47:21;;;;;;;3.70;2.10;;;;;;;;;;5048982;28;20209;-80
2022/05/17 06:49:50;;;;;;;3.45;2.22;;;;;;;;;;5050785;28;20196;-80
2022/05/17 06:52:17;;;;;;;4.18;2.50;;;;;;;;;;5045364;28;20277;-80
2022/05/17 06:54:44;;;;;;;2.85;1.80;;;;;;;;;;5044428;28;20535;-79
2022/05/17 06:57:12;;;;;;;4.53;3.17;;;;;;;;;;5045616;28;20203;-79
2022/05/17 06:59:41;;;;;;;2.20;2.00;;;;;;;;;;5047509;28;20202;-79
2022/05/17 07:02:08;;;;;;;2.72;2.53;;;;;;;;;;5040234;28;20211;-79
2022/05/17 07:04:35;;;;;;;2.20;2.00;;;;;;;;;;5047543;28;20627;-79
2022/05/17 07:07:04;;;;;;;2.45;1.90;;;;;;;;;;5043482;28;20198;-79
2022/05/17 07:09:31;;;;;;;2.60;2.05;;;;;;;;;;5037912;28;20203;-78
2022/05/17 07:14:43;;;;;;;11.48;8.52;;;;;;;;;;5050209;28;20205;-84
2022/05/17 07:17:13;;;;;;;5.65;5.15;;;;;;;;;;5046861;28;20199;-78
2022/05/17 07:19:40;;;;;;;8.27;5.78;;;;;;;;;;5046166;28;20658;-79
2022/05/17 07:22:10;;;;;;;9.02;6.53;;;;;;;;;;5049978;28;20242;-78
2022/05/17 07:24:37;;;;;;;8.20;5.50;;;;;;;;;;5045998;28;20634;-80
2022/05/17 07:27:05;;;;;;;7.50;5.03;;;;;;;;;;5043700;28;20195;-80
2022/05/17 07:29:33;;;;;;;5.82;4.50;;;;;;;;;;5043984;28;20287;-80
2022/05/17 07:32:00;;;;;;;6.57;3.67;;;;;;;;;;5037417;28;20206;-80
2022/05/17 07:34:28;;;;;;;5.85;4.57;;;;;;;;;;5050435;28;20206;-80
2022/05/17 07:36:55;;;;;;;7.65;4.07;;;;;;;;;;5045107;28;20677;-79
2022/05/17 07:39:24;;;;;;;4.70;4.10;;;;;;;;;;5040738;28;20199;-80
2022/05/17 07:41:52;;;;;;;7.18;3.72;;;;;;;;;;5042965;28;20771;-80
2022/05/17 07:44:19;;;;;;;14.13;6.47;;;;;;;;;;5047510;28;20202;-91
2022/05/17 07:46:46;;;;;;;14.80;9.52;;;;;;;;;;5043692;28;20196;-87
2022/05/17 07:49:13;;;;;;;8.40;6.18;;;;;;;;;;5050655;28;20210;-80
2022/05/17 07:51:41;;;;;;;10.32;6.15;;;;;;;;;;5047862;28;20203;-81
2022/05/17 07:54:08;;;;;;;4.97;4.25;;;;;;;;;;5036173;28;20195;-81
2022/05/17 07:56:36;;;;;;;14.60;4.80;;;;;;;;;;5036969;28;20563;-78
2022/05/17 07:59:03;;;;;;;9.25;4.28;;;;;;;;;;5034732;28;20210;-78
2022/05/17 08:01:31;;;;;;;8.27;4.35;;;;;;;;;;5040930;28;20205;-78
2022/05/17 08:03:58;;;;;;;5.60;3.95;;;;;;;;;;5044547;28;20225;-78
2022/05/17 08:06:25;;;;;;;31.17;4.88;;;;;;;;;;5037063;28;20352;-77
2022/05/17 08:08:52;;;;;;;3.50;3.20;;;;;;;;;;5038596;28;20198;-78
2022/05/17 08:11:20;;;;;;;4.03;2.85;;;;;;;;;;5043981;28;20203;-78
2022/05/17 08:13:48;;;;;;;3.40;2.85;;;;;;;;;;5045516;28;20207;-79
2022/05/17 08:16:15;;;;;;;8.25;3.45;;;;;;;;;;5047108;28;20200;-77
2022/05/17 08:18:43;;;;;;;4.78;3.72;;;;;;;;;;5043786;28;20199;-78
2022/05/17 08:21:10;;;;;;;5.25;2.90;;;;;;;;;;5043649;28;20255;-77
2022/05/17 08:23:37;;;;;;;7.68;3.20;;;;;;;;;;5045629;28;20221;-79
2022/05/17 08:28:51;;;;;;;6.75;4.13;;;;;;;;;;5041534;28;20214;-77
2022/05/17 08:31:18;;;;;;;3.30;2.42;;;;;;;;;;5045710;28;20217;-78
2022/05/17 08:33:44;;;;;;;4.00;2.20;;;;;;;;;;5044579;28;20698;-77
2022/05/17 08:36:12;;;;;;;4.05;2.65;;;;;;;;;;5040192;28;20202;-77
2022/05/17 08:38:41;;;;;;;3.53;2.50;;;;;;;;;;5042427;28;20196;-78
2022/05/17 08:41:11;;;;;;;4.47;3.08;;;;;;;;;;5045852;28;20198;-79
2022/05/17 08:43:44;;;;;;;8.90;3.05;;;;;;;;;;5049759;28;20226;-78
2022/05/17 08:46:19;;;;;;;4.30;2.60;;;;;;;;;;5044076;28;20201;-77
2022/05/17 08:48:49;;;;;;;4.15;2.30;;;;;;;;;;5040676;28;20195;-79
2022/05/17 08:51:19;;;;;;;3.50;2.45;;;;;;;;;;5044003;28;20242;-77
2022/05/17 08:53:47;;;;;;;5.55;2.63;;;;;;;;;;5038003;28;20206;-79
2022/05/17 08:56:16;;;;;;;2.30;2.10;;;;;;;;;;5040223;28;20222;-77
2022/05/17 08:58:46;;;;;;;6.40;2.20;;;;;;;;;;5040972;28;20239;-78
2022/05/17 09:01:18;;;;;;;2.63;2.30;;;;;;;;;;5036665;28;20586;-79
2022/05/17 09:03:52;;;;;;;4.75;2.60;;;;;;;;;;5045345;28;20223;-78
2022/05/17 09:06:22;;;;;;;4.55;3.20;;;;;;;;;;5031435;28;20203;-79
2022/05/17 09:08:51;;;;;;;4.60;2.75;;;;;;;;;;5046355;28;20199;-79
2022/05/17 09:11:22;;;;;;;4.72;2.63;;;;;;;;;;5044923;28;20330;-79
2022/05/17 09:13:52;;;;;;;4.32;2.42;;;;;;;;;;5044341;28;20191;-79
2022/05/17 09:16:21;;;;;;;4.55;2.35;;;;;;;;;;5039691;28;20206;-80
2022/05/17 09:18:49;;;;;;;2.30;2.10;;;;;;;;;;5046617;28;20195;-81
2022/05/17 09:21:24;;;;;;;3.90;2.47;;;;;;;;;;5038299;28;20207;-79
2022/05/17 09:23:52;;;;;;;2.90;2.22;;;;;;;;;;5041146;28;20219;-82
2022/05/17 09:26:19;;;;;;;6.55;3.00;;;;;;;;;;5038666;28;20682;-80
2022/05/17 09:28:49;;;;;;;4.40;3.05;;;;;;;;;;5035255;28;20204;-79
2022/05/17 09:31:18;;;;;;;7.18;3.03;;;;;;;;;;5036996;28;20211;-79
2022/05/17 09:33:49;;;;;;;4.43;2.58;;;;;;;;;;5043592;28;20191;-80
2022/05/17 09:36:19;;;;;;;3.25;2.42;;;;;;;;;;5040524;28;20210;-80
2022/05/17 09:38:48;;;;;;;4.78;3.17;;;;;;;;;;5041147;28;20265;-81
2022/05/17 09:41:17;;;;;;;3.25;2.05;;;;;;;;;;5039940;28;20215;-80
2022/05/17 09:43:46;;;;;;;4.63;3.15;;;;;;;;;;5038021;28;20242;-80
2022/05/17 09:46:14;;;;;;;5.93;2.45;;;;;;;;;;5046696;28;20682;-80
2022/05/17 09:54:28;;;;;;;6.03;2.55;;;;;;;;;;5040138;28;20366;-79
2022/05/17 09:56:55;;;;;;;3.40;2.15;;;;;;;;;;5041402;28;22329;-79
2022/05/17 09:59:23;;;;;;;4.90;2.65;;;;;;;;;;5033173;28;20704;-81
2022/05/17 10:01:50;;;;;;;8.30;4.30;;;;;;;;;;5040986;28;20229;-87
2022/05/17 10:04:20;;;;;;;5.78;3.30;;;;;;;;;;5046993;28;20848;-79
2022/05/17 10:06:51;;;;;;;7.85;3.75;;;;;;;;;;5045631;28;20241;-80
2022/05/17 10:09:28;;;;;;;4.07;3.13;;;;;;;;;;5043519;28;20214;-79
2022/05/17 10:11:58;;;;;;;6.68;2.58;;;;;;;;;;5047054;28;20709;-80
2022/05/17 10:14:31;;;;;;;5.00;2.33;;;;;;;;;;5041735;28;20222;-78
2022/05/17 10:20:03;;;;;;;6.10;2.60;;;;;;;;;;5036740;28;20253;-78
2022/05/17 10:22:37;;;;;;;4.57;2.15;;;;;;;;;;5029152;28;20286;-79
2022/05/17 10:25:09;;;;;;;5.05;2.25;;;;;;;;;;5041114;28;20206;-78
2022/05/17 10:27:38;;;;;;;3.25;2.40;;;;;;;;;;5039930;28;20210;-78
2022/05/17 10:30:08;;;;;;;5.53;2.90;;;;;;;;;;5038531;28;20570;-79
2022/05/17 10:32:38;;;;;;;4.15;2.95;;;;;;;;;;5040838;28;20286;-78
2022/05/17 10:35:10;;;;;;;4.18;2.42;;;;;;;;;;5040201;28;20195;-78
2022/05/17 10:37:49;;;;;;;6.07;2.90;;;;;;;;;;5045677;28;20230;-78
2022/05/17 10:40:29;;;;;;;5.13;2.45;;;;;;;;;;5036304;28;20211;-78
2022/05/17 10:42:57;;;;;;;5.37;2.50;;;;;;;;;;5043116;28;20280;-78
2022/05/17 10:45:33;;;;;;;5.00;2.23;;;;;;;;;;5044954;28;20562;-79
2022/05/17 10:48:21;;;;;;;7.07;2.47;;;;;;;;;;5049342;28;20453;-79
2022/05/17 10:50:52;;;;;;;2.47;2.25;;;;;;;;;;5049689;28;20226;-78
2022/05/17 10:53:38;;;;;;;4.18;2.28;;;;;;;;;;5045006;28;20217;-79
2022/05/17 10:56:09;;;;;;;4.32;2.13;;;;;;;;;;5049991;28;20207;-78
2022/05/17 10:58:43;;;;;;;4.93;2.60;;;;;;;;;;5036384;28;20689;-81
2022/05/17 11:01:13;;;;;;;4.20;3.13;;;;;;;;;;5043961;28;20484;-77
2022/05/17 11:03:59;;;;;;;5.18;2.30;;;;;;;;;;5038092;28;20936;-79
2022/05/17 11:06:28;;;;;;;3.15;1.88;;;;;;;;;;5045383;28;20218;-80
2022/05/17 11:09:01;;;;;;;2.73;2.53;;;;;;;;;;5047391;28;20221;-78
2022/05/17 11:11:38;;;;;;;2.72;2.30;;;;;;;;;;5044261;28;20454;-80
2022/05/17 11:14:09;;;;;;;4.30;2.53;;;;;;;;;;5041134;28;20589;-79
2022/05/17 11:16:39;;;;;;;3.10;2.08;;;;;;;;;;5047057;28;20199;-80
2022/05/17 11:19:10;;;;;;;3.45;2.20;;;;;;;;;;5038844;28;20203;-79
2022/05/17 11:21:41;;;;;;;3.55;3.25;;;;;;;;;;5047122;28;20212;-80
2022/05/17 11:24:21;;;;;;;4.40;2.45;;;;;;;;;;5044537;28;20223;-79
2022/05/17 11:27:13;;;;;;;4.68;2.35;;;;;;;;;;5040338;28;20574;-80
2022/05/17 11:30:03;;;;;;;3.13;2.45;;;;;;;;;;5050577;28;20658;-78
2022/05/17 11:32:31;;;;;;;3.60;2.60;;;;;;;;;;5048790;28;20701;-77
2022/05/17 11:35:02;;;;;;;4.78;2.30;;;;;;;;;;5050270;28;20662;-78
2022/05/17 11:37:53;;;;;;;3.60;2.25;;;;;;;;;;5039649;28;20211;-80
2022/05/17 11:40:42;;;;;;;4.00;2.10;;;;;;;;;;5035910;28;20200;-78
2022/05/17 11:45:58;;;;;;;8.00;2.70;;;;;;;;;;5050920;28;20213;-78
2022/05/17 11:48:26;;;;;;;2.78;2.05;;;;;;;;;;5049379;28;20207;-78
2022/05/17 11:50:57;;;;;;;2.73;2.40;;;;;;;;;;5050373;28;20194;-78
2022/05/17 11:53:34;;;;;;;1.83;1.73;;;;;;;;;;5044079;28;20571;-77
2022/05/17 11:56:33;;;;;;;3.28;2.30;;;;;;;;;;5046985;28;20198;-77
2022/05/17 11:59:26;;;;;;;3.07;2.20;;;;;;;;;;5044174;28;20192;-76
2022/05/17 12:02:04;;;;;;;2.85;1.77;;;;;;;;;;5049316;28;20548;-78
2022/05/17 12:04:43;;;;;;;3.37;1.70;;;;;;;;;;5045912;28;20216;-80
2022/05/17 12:07:21;;;;;;;2.50;2.10;;;;;;;;;;5046285;28;20458;-76
2022/05/17 12:09:50;;;;;;;3.50;2.20;;;;;;;;;;5048634;28;20528;-76
2022/05/17 12:12:27;;;;;;;3.47;2.20;;;;;;;;;;5053764;28;20436;-77
2022/05/17 12:15:03;;;;;;;2.53;2.15;;;;;;;;;;5051155;28;20199;-77
2022/05/17 12:17:35;;;;;;;5.00;2.20;;;;;;;;;;5052446;28;20629;-76
2022/05/17 12:20:05;;;;;;;2.97;2.15;;;;;;;;;;5041825;28;20470;-78
2022/05/17 12:22:35;;;;;;;3.00;2.13;;;;;;;;;;5051382;28;20566;-78
2022/05/17 12:25:06;;;;;;;5.00;4.23;;;;;;;;;;5048593;28;20876;-77
2022/05/17 12:27:34;;;;;;;2.47;2.27;;;;;;;;;;5044105;28;20991;-76
2022/05/17 12:32:52;;;;;;;4.15;2.47;;;;;;;;;;5051075;28;20230;-78
2022/05/17 12:35:24;;;;;;;3.60;2.10;;;;;;;;;;5041582;28;20202;-77
2022/05/17 12:37:51;;;;;;;4.80;2.67;;;;;;;;;;5040630;28;20458;-78
2022/05/17 12:43:07;;;;;;;5.20;2.33;;;;;;;;;;5049428;28;20796;-78
2022/05/17 12:45:36;;;;;;;4.53;2.10;;;;;;;;;;5051625;28;20441;-79
2022/05/17 12:48:12;;;;;;;3.55;2.42;;;;;;;;;;5050910;28;20282;-77
2022/05/17 12:50:41;;;;;;;4.75;2.20;;;;;;;;;;5050159;28;20198;-79
2022/05/17 12:53:12;;;;;;;3.85;2.33;;;;;;;;;;5042238;28;20203;-78
2022/05/17 12:55:42;;;;;;;2.47;2.10;;;;;;;;;;5047064;28;20197;-78
2022/05/17 12:58:11;;;;;;;3.75;1.95;;;;;;;;;;5039196;28;20210;-77
2022/05/17 13:00:39;;;;;;;5.03;1.90;;;;;;;;;;5050922;28;20293;-78
2022/05/17 13:03:17;;;;;;;3.90;1.92;;;;;;;;;;5038431;28;20581;-78
2022/05/17 13:05:48;;;;;;;3.05;1.60;;;;;;;;;;5035726;28;20191;-77
2022/05/17 13:08:16;;;;;;;3.13;2.20;;;;;;;;;;5044349;28;20721;-79
2022/05/17 13:10:45;;;;;;;3.10;1.95;;;;;;;;;;5041309;28;20199;-78
2022/05/17 13:13:16;;;;;;;4.47;2.00;;;;;;;;;;5032837;28;20211;-79
2022/05/17 13:15:45;;;;;;;3.22;1.80;;;;;;;;;;5031608;28;20200;-79
2022/05/17 13:18:13;;;;;;;2.28;1.85;;;;;;;;;;5035182;28;20211;-79
2022/05/17 13:20:48;;;;;;;2.00;1.80;;;;;;;;;;5037833;28;20691;-79
2022/05/17 13:23:15;;;;;;;4.03;2.00;;;;;;;;;;5039506;28;20693;-79
2022/05/17 13:25:44;;;;;;;2.33;1.83;;;;;;;;;;5050699;28;21024;-79
2022/05/17 13:28:12;;;;;;;2.30;1.80;;;;;;;;;;5041259;28;20223;-79
2022/05/17 13:30:40;;;;;;;4.80;2.40;;;;;;;;;;5046837;28;20195;-80
2022/05/17 13:33:10;;;;;;;3.72;2.20;;;;;;;;;;5041072;28;20462;-79
2022/05/17 13:35:38;;;;;;;4.00;2.40;;;;;;;;;;5042720;28;20210;-81
2022/05/17 13:38:10;;;;;;;1.85;1.70;;;;;;;;;;5037042;28;20461;-80
2022/05/17 13:40:39;;;;;;;2.60;1.98;;;;;;;;;;5030893;28;20651;-79
2022/05/17 13:43:20;;;;;;;3.38;1.88;;;;;;;;;;5042543;28;20215;-79
2022/05/17 13:45:59;;;;;;;2.60;1.80;;;;;;;;;;5046715;28;20223;-79
2022/05/17 13:48:27;;;;;;;5.70;3.67;;;;;;;;;;5034508;28;20574;-80
2022/05/17 13:50:54;;;;;;;5.82;2.00;;;;;;;;;;5045839;28;20214;-81
2022/05/17 13:53:23;;;;;;;3.27;1.87;;;;;;;;;;5046620;28;20229;-79
2022/05/17 13:55:51;;;;;;;1.63;1.50;;;;;;;;;;5035433;28;20532;-78
2022/05/17 13:58:18;;;;;;;1.53;1.33;;;;;;;;;;5036497;28;20207;-80
2022/05/17 14:00:58;;;;;;;6.93;2.83;;;;;;;;;;5042734;28;20445;-79
2022/05/17 14:03:25;;;;;;;2.73;2.03;;;;;;;;;;5045178;28;20450;-79
2022/05/17 14:05:58;;;;;;;1.80;1.60;;;;;;;;;;5036492;28;20484;-78
2022/05/17 14:14:02;;;;;;;2.50;2.30;;;;;;;;;;5047352;28;20202;-79
2022/05/17 14:16:31;;;;;;;4.35;1.98;;;;;;;;;;5050106;28;20932;-79
2022/05/17 14:18:59;;;;;;;3.25;2.17;;;;;;;;;;5055854;28;20286;-79
2022/05/17 14:21:28;;;;;;;2.95;2.05;;;;;;;;;;5054059;28;20202;-79
2022/05/17 14:23:56;;;;;;;2.78;2.20;;;;;;;;;;5034438;28;20200;-81
2022/05/17 14:26:24;;;;;;;3.80;1.95;;;;;;;;;;5040474;28;20706;-80
2022/05/17 14:28:52;;;;;;;3.10;2.17;;;;;;;;;;5045440;28;20219;-80
2022/05/17 14:31:20;;;;;;;3.13;2.03;;;;;;;;;;5045542;28;20501;-80
2022/05/17 14:33:47;;;;;;;2.60;2.40;;;;;;;;;;5044510;28;20647;-80
2022/05/17 14:36:16;;;;;;;5.63;2.30;;;;;;;;;;5045219;28;20204;-80
2022/05/17 14:38:44;;;;;;;7.00;2.87;;;;;;;;;;5042644;28;20215;-81
2022/05/17 14:41:13;;;;;;;3.60;1.77;;;;;;;;;;5039480;28;20995;-81
2022/05/17 14:43:40;;;;;;;2.93;2.30;;;;;;;;;;5033296;28;20613;-81
2022/05/17 14:46:07;;;;;;;5.10;2.13;;;;;;;;;;5051374;28;20481;-80
2022/05/17 14:48:35;;;;;;;4.28;2.10;;;;;;;;;;5049590;28;20836;-81
2022/05/17 14:51:03;;;;;;;3.55;2.45;;;;;;;;;;5037902;28;20200;-81
2022/05/17 14:53:30;;;;;;;3.95;2.20;;;;;;;;;;5044957;28;20249;-81
2022/05/17 14:55:57;;;;;;;6.53;2.10;;;;;;;;;;5045825;28;20669;-81
2022/05/17 14:58:26;;;;;;;3.50;1.90;;;;;;;;;;5043501;28;20552;-82
2022/05/17 15:00:53;;;;;;;3.95;1.85;;;;;;;;;;5043304;28;20199;-81
2022/05/17 15:03:21;;;;;;;4.90;1.65;;;;;;;;;;5047060;28;20203;-80
2022/05/17 15:05:50;;;;;;;3.28;2.03;;;;;;;;;;5044886;28;20690;-81
2022/05/17 15:08:18;;;;;;;1.87;1.40;;;;;;;;;;5047685;28;20230;-82
2022/05/17 15:10:45;;;;;;;2.50;1.70;;;;;;;;;;5047291;28;20986;-81
2022/05/17 15:13:12;;;;;;;3.28;2.58;;;;;;;;;;5052313;28;20203;-81
2022/05/17 15:15:42;;;;;;;4.38;1.65;;;;;;;;;;5031188;28;20287;-81
2022/05/17 15:18:11;;;;;;;5.50;2.10;;;;;;;;;;5039110;28;20748;-81
2022/05/17 15:20:40;;;;;;;6.60;1.80;;;;;;;;;;5034073;28;20644;-81
2022/05/17 15:23:07;;;;;;;3.50;2.17;;;;;;;;;;5035932;28;20462;-81